Oxley, Queensland

3:07 PM AEST on December 29, 2014 (GMT +1000)
Darra | Change Station
CLOSE
Current Station
Personal Weather Station
Location: Brisbane, QUEENSLAND
Elevation: 82 ft
Nearby Weather Stations

Elev 82 ft 27.56 °S, 152.96 °E | Updated 3 seconds ago

Scattered Clouds
Scattered Clouds
86.2 °F
Feels Like 93 °F
N
0.4
Wind Variable Wind from SSW
Gusts 2.5 mph

Today
High -- | Low -- °F
--% Chance of Precip.
Yesterday
High -- | Low -- °F
Precip. -- in
4:53 AM 6:46 PM
First Quarter, 55% visible
Pressure 29.71 in
Visibility 6.2 miles
Clouds Scattered Clouds 7000 ft
Scattered Clouds 8400 ft
Heat Index 93 °F
Dew Point 73 °F
Humidity 64%
Rainfall 0.14 in
Snow Depth Not available.
UV 2.0 out of 12
Pollen Not available.
Air Quality Not available.
Flu Activity Not available.
METAR YAMB 290500Z AUTO 36005KT 9999 // SCT070 SCT084 30/20 Q1006

More Conditions Fewer Conditions

Pressure 29.71 in
Visibility 6.2 miles
Clouds Scattered Clouds 7000 ft
Scattered Clouds 8400 ft
Heat Index 93 °F
Dew Point 73 °F
Humidity 64%
Rainfall 0.14 in
Snow Depth Not available.
UV 2.0 out of 12
Pollen Not available.
Air Quality Not available.
Flu Activity Not available.
METAR YAMB 290500Z AUTO 36005KT 9999 // SCT070 SCT084 30/20 Q1006

More Conditions Fewer Conditions

10-Day Weather Forecast

Almanac

Astronomy

Dec. 29, 2014 Rise Set
Actual Time
Civil Twilight
Nautical Twilight
Astronomical Twilight
Moon
Length of Visible Light
Length of Day
Tomorrow will be .
, % of the Moon is Illuminated

Today's Extremes

Country Highs Country Lows

Community

WunderPhotos

Upload Photos

1,781,529 photos uploaded!

WunderBlogs® & News

Nearby

Air Quality

  Air Quality AQ Index Pollutant
Not available.

Snow Depth

Station Depth Elevation

Earthquake Activity

City Distance Mag. Time & Date
Minimum magnitude displayed is 2.5.

Coastal Water Temperatures

Place Temperature

Nearby Weather Stations